createdAt,value
2022-08-18T00:01:23.557Z,59.25
2022-08-18T00:03:56.367Z,59.78
2022-08-18T00:06:29.918Z,59.70
2022-08-18T00:08:59.167Z,59.84
2022-08-18T00:11:27.543Z,59.71
2022-08-18T00:13:54.727Z,59.52
2022-08-18T00:16:22.326Z,59.54
2022-08-18T00:18:49.582Z,60.72
2022-08-18T00:21:18.228Z,60.35
2022-08-18T00:23:45.411Z,60.66
2022-08-18T00:26:12.697Z,60.13
2022-08-18T00:28:39.923Z,60.61
2022-08-18T00:31:07.127Z,60.17
2022-08-18T00:33:34.255Z,60.49
2022-08-18T00:36:01.456Z,59.94
2022-08-18T00:38:28.644Z,60.28
2022-08-18T00:40:56.935Z,59.70
2022-08-18T00:43:39.781Z,60.31
2022-08-18T00:46:09.151Z,60.41
2022-08-18T00:48:36.343Z,60.20
2022-08-18T00:51:08.807Z,59.88
2022-08-18T00:53:41.990Z,60.08
2022-08-18T00:56:13.742Z,59.89
2022-08-18T00:58:45.952Z,60.82
2022-08-18T01:01:14.719Z,60.12
2022-08-18T01:03:43.973Z,60.20
2022-08-18T01:06:32.463Z,60.15
2022-08-18T01:08:59.829Z,59.87
2022-08-18T01:11:27.208Z,60.13
2022-08-18T01:13:54.391Z,59.94
2022-08-18T01:16:56.938Z,60.44
2022-08-18T01:19:44.582Z,60.01
2022-08-18T01:22:30.727Z,60.78
2022-08-18T01:25:18.639Z,61.03
2022-08-18T01:27:46.091Z,60.88
2022-08-18T01:30:16.706Z,60.92
2022-08-18T01:32:46.030Z,60.72
2022-08-18T01:35:15.903Z,60.78
2022-08-18T01:37:43.393Z,60.72
2022-08-18T01:41:22.676Z,60.65
2022-08-18T01:43:03.510Z,60.76
2022-08-18T01:45:33.408Z,60.35
2022-08-18T01:48:00.952Z,60.38
2022-08-18T01:50:29.527Z,60.61
2022-08-18T01:52:56.713Z,60.28
2022-08-18T01:55:26.667Z,60.46
2022-08-18T01:57:54.984Z,60.60
2022-08-18T02:00:22.366Z,60.13
2022-08-18T02:02:58.671Z,60.23
2022-08-18T02:05:34.239Z,60.20
2022-08-18T02:08:01.449Z,60.14
2022-08-18T02:10:28.828Z,59.85
2022-08-18T02:12:56.013Z,59.93
2022-08-18T02:15:23.250Z,60.12
2022-08-18T02:17:50.767Z,60.00
2022-08-18T02:20:19.169Z,60.29
2022-08-18T02:22:47.454Z,59.94
2022-08-18T02:25:15.472Z,60.60
2022-08-18T02:27:43.112Z,61.13
2022-08-18T02:30:13.742Z,60.66
2022-08-18T02:32:41.990Z,60.33
2022-08-18T02:35:11.816Z,60.74
2022-08-18T02:37:42.299Z,60.44
2022-08-18T02:40:15.369Z,60.40
2022-08-18T02:42:44.088Z,60.24
2022-08-18T02:45:12.844Z,60.25
2022-08-18T02:47:40.345Z,60.69
2022-08-18T02:50:10.991Z,60.96
2022-08-18T02:52:40.306Z,60.77
2022-08-18T02:55:08.313Z,61.22
2022-08-18T02:57:35.734Z,61.23
2022-08-18T03:00:04.469Z,61.42
2022-08-18T03:02:32.229Z,61.31
2022-08-18T03:04:59.533Z,61.29
2022-08-18T03:07:26.731Z,60.82
2022-08-18T03:09:53.928Z,61.33
2022-08-18T03:12:21.160Z,61.04
2022-08-18T03:14:48.613Z,61.60
2022-08-18T03:17:15.781Z,62.30
2022-08-18T03:19:47.725Z,62.25
2022-08-18T03:22:28.230Z,62.10
2022-08-18T03:24:57.518Z,62.37
2022-08-18T03:27:25.251Z,62.49
2022-08-18T03:29:52.503Z,62.59
2022-08-18T03:32:19.671Z,62.61
2022-08-18T03:34:46.907Z,62.49
2022-08-18T03:37:15.978Z,62.59
2022-08-18T03:39:43.349Z,62.59
2022-08-18T03:42:10.620Z,63.35
2022-08-18T03:44:37.753Z,63.06
2022-08-18T03:47:09.814Z,63.35
2022-08-18T03:49:37.290Z,62.89
2022-08-18T03:52:08.239Z,63.60
2022-08-18T03:54:36.265Z,63.73
2022-08-18T03:57:03.374Z,63.43
2022-08-18T03:59:32.070Z,64.38
2022-08-18T04:01:59.475Z,63.93
2022-08-18T04:04:28.253Z,64.08
2022-08-18T04:06:59.648Z,63.88
2022-08-18T04:09:29.281Z,64.05
2022-08-18T04:11:58.040Z,64.63
2022-08-18T04:14:35.810Z,64.79
2022-08-18T04:17:02.963Z,64.80
2022-08-18T04:19:30.972Z,64.82
2022-08-18T04:21:58.282Z,64.40
2022-08-18T04:24:28.243Z,64.32
2022-08-18T04:26:59.288Z,64.33
2022-08-18T04:29:26.672Z,63.79
2022-08-18T04:31:54.069Z,64.11
2022-08-18T04:34:22.849Z,63.73
2022-08-18T04:36:53.876Z,63.83
2022-08-18T04:39:22.128Z,63.53
2022-08-18T04:41:49.917Z,63.65
2022-08-18T04:44:18.156Z,63.88
2022-08-18T04:46:47.965Z,63.88
2022-08-18T04:49:16.337Z,63.26
2022-08-18T04:52:36.224Z,63.59
2022-08-18T04:54:52.304Z,63.32
2022-08-18T04:57:21.570Z,63.19
2022-08-18T04:59:50.645Z,62.73
2022-08-18T05:02:18.968Z,62.81
2022-08-18T05:04:49.336Z,62.63
2022-08-18T05:07:22.530Z,62.67
2022-08-18T05:09:50.129Z,62.34
2022-08-18T05:12:17.371Z,62.30
2022-08-18T05:14:45.929Z,62.14
2022-08-18T05:17:14.968Z,61.93
2022-08-18T05:19:44.477Z,61.96
2022-08-18T05:22:17.713Z,61.73
2022-08-18T05:24:46.086Z,61.55
2022-08-18T05:27:13.671Z,61.21
2022-08-18T05:29:45.714Z,60.59
2022-08-18T05:32:38.274Z,60.65
2022-08-18T05:35:07.975Z,60.20
2022-08-18T05:38:04.615Z,60.04
2022-08-18T05:40:31.925Z,59.67
2022-08-18T05:42:59.939Z,59.53
2022-08-18T05:45:27.465Z,59.42
2022-08-18T05:48:00.010Z,59.11
2022-08-18T05:50:29.459Z,58.99
2022-08-18T05:53:13.729Z,58.98
2022-08-18T05:56:15.959Z,58.69
2022-08-18T05:58:48.230Z,58.94
2022-08-18T06:01:31.300Z,58.71
2022-08-18T06:04:05.491Z,58.70
2022-08-18T06:06:32.958Z,58.65
2022-08-18T06:09:27.810Z,58.14
2022-08-18T06:12:05.003Z,57.65
2022-08-18T06:14:32.153Z,57.50
2022-08-18T06:17:04.440Z,56.99
2022-08-18T06:19:49.503Z,57.08
2022-08-18T06:22:30.633Z,56.39
2022-08-18T06:25:55.323Z,55.68
2022-08-18T06:28:22.464Z,54.96
2022-08-18T06:31:02.812Z,55.35
2022-08-18T06:33:42.735Z,54.70
2022-08-18T06:36:30.511Z,54.44
2022-08-18T06:39:16.455Z,53.89
2022-08-18T06:41:48.983Z,53.71
2022-08-18T06:44:45.588Z,53.93
2022-08-18T06:47:46.258Z,53.41
2022-08-18T06:50:31.885Z,52.92
2022-08-18T06:53:07.558Z,52.93
2022-08-18T06:55:54.179Z,52.74
2022-08-18T06:58:25.953Z,52.81
2022-08-18T07:00:55.999Z,51.82
2022-08-18T07:03:35.472Z,52.50
2022-08-18T07:06:25.314Z,52.00
2022-08-18T07:08:54.316Z,51.67
2022-08-18T07:11:22.906Z,51.44
2022-08-18T07:14:14.512Z,51.74
2022-08-18T07:16:57.845Z,51.17
2022-08-18T07:19:29.283Z,50.95
2022-08-18T07:22:18.041Z,51.02
2022-08-18T07:24:50.953Z,50.50
2022-08-18T07:27:23.961Z,50.47
2022-08-18T07:30:05.702Z,50.41
2022-08-18T07:32:39.486Z,50.28
2022-08-18T07:35:08.941Z,50.17
2022-08-18T07:37:45.453Z,50.79
2022-08-18T07:40:51.581Z,51.00
2022-08-18T07:43:27.568Z,50.38
2022-08-18T07:46:08.489Z,50.05
2022-08-18T07:48:40.066Z,49.77
2022-08-18T07:51:43.627Z,50.00
2022-08-18T07:54:47.569Z,49.44
2022-08-18T07:57:20.482Z,49.47
2022-08-18T07:59:53.285Z,49.21
2022-08-18T08:02:46.442Z,49.09
2022-08-18T08:05:55.825Z,49.18
2022-08-18T08:08:45.390Z,49.00
2022-08-18T08:11:30.881Z,48.26
2022-08-18T08:14:22.899Z,48.42
2022-08-18T08:17:26.538Z,48.38
2022-08-18T08:20:01.821Z,48.13
2022-08-18T08:22:37.488Z,47.80
2022-08-18T08:25:45.680Z,47.22
2022-08-18T08:28:35.717Z,47.41
2022-08-18T08:31:33.251Z,47.01
2022-08-18T08:34:07.643Z,46.97
2022-08-18T08:36:39.589Z,46.94
2022-08-18T08:39:21.746Z,46.73
2022-08-18T08:42:28.882Z,46.31
2022-08-18T08:45:00.790Z,46.01
2022-08-18T08:47:36.887Z,46.05
2022-08-18T08:50:15.202Z,45.74
2022-08-18T08:53:06.776Z,45.49
2022-08-18T08:55:36.274Z,45.02
2022-08-18T08:58:29.077Z,44.94
2022-08-18T09:00:56.913Z,44.44
2022-08-18T09:03:40.113Z,44.86
2022-08-18T09:06:17.006Z,45.12
2022-08-18T09:08:56.136Z,44.36
2022-08-18T09:11:48.432Z,43.98
2022-08-18T09:14:34.091Z,43.35
2022-08-18T09:17:34.153Z,42.81
2022-08-18T09:20:22.948Z,42.41
2022-08-18T09:22:54.415Z,42.83
2022-08-18T09:25:52.102Z,43.05
2022-08-18T09:28:42.908Z,42.47
2022-08-18T09:31:09.896Z,42.44
2022-08-18T09:33:44.429Z,41.64
2022-08-18T09:36:29.945Z,40.80
2022-08-18T09:39:20.548Z,40.24
2022-08-18T09:41:59.257Z,39.63
2022-08-18T09:44:47.695Z,39.18
2022-08-18T09:47:21.988Z,39.28
2022-08-18T09:49:57.048Z,39.48
2022-08-18T09:52:26.291Z,39.24
2022-08-18T09:55:00.481Z,38.76
2022-08-18T09:57:42.257Z,37.99
2022-08-18T10:00:14.600Z,38.43
2022-08-18T10:02:41.897Z,37.97
2022-08-18T10:05:15.925Z,37.49
2022-08-18T10:08:01.432Z,37.95
2022-08-18T10:11:01.117Z,37.74
2022-08-18T10:13:55.069Z,37.40
2022-08-18T10:17:21.703Z,37.18
2022-08-18T10:20:05.891Z,35.97
2022-08-18T10:22:43.416Z,36.21
2022-08-18T10:25:23.015Z,35.21
2022-08-18T10:27:55.033Z,35.59
2022-08-18T10:30:36.230Z,35.50
2022-08-18T10:33:58.519Z,35.90
2022-08-18T10:36:51.231Z,35.96
2022-08-18T10:39:23.785Z,36.14
2022-08-18T10:42:00.541Z,35.60
2022-08-18T10:44:31.165Z,34.15
2022-08-18T10:46:59.399Z,34.22
2022-08-18T10:49:28.708Z,33.88
2022-08-18T10:52:23.647Z,34.34
2022-08-18T10:54:51.863Z,33.62
2022-08-18T10:57:53.647Z,33.67
2022-08-18T11:00:22.086Z,34.31
2022-08-18T11:06:06.855Z,32.88
2022-08-18T11:08:45.301Z,32.85
2022-08-18T11:11:34.104Z,32.88
2022-08-18T11:14:09.729Z,32.92
2022-08-18T11:16:37.275Z,32.73
2022-08-18T11:19:16.830Z,31.31
2022-08-18T11:24:35.383Z,31.41
2022-08-18T11:29:55.255Z,30.68
2022-08-18T11:32:35.916Z,31.28
2022-08-18T11:35:12.388Z,30.55
2022-08-18T11:37:48.567Z,28.92
2022-08-18T11:41:33.199Z,29.40
2022-08-18T11:43:41.463Z,29.19
2022-08-18T11:46:28.299Z,28.71
2022-08-18T11:49:00.733Z,27.63
2022-08-18T11:51:32.932Z,27.34
2022-08-18T11:54:03.088Z,27.39
2022-08-18T11:56:37.828Z,27.05
2022-08-18T11:59:52.810Z,27.59
2022-08-18T12:02:17.896Z,27.09
2022-08-18T12:04:50.410Z,26.81
2022-08-18T12:07:27.529Z,25.81
2022-08-18T12:10:16.686Z,25.11
2022-08-18T12:12:51.931Z,24.21
2022-08-18T12:15:23.990Z,25.59
2022-08-18T12:17:53.518Z,25.20
2022-08-18T12:20:22.017Z,25.01
2022-08-18T12:22:50.373Z,24.89
2022-08-18T12:25:25.477Z,25.04
2022-08-18T12:27:53.866Z,24.65
2022-08-18T12:30:21.097Z,23.93
2022-08-18T12:32:49.348Z,23.63
2022-08-18T12:35:22.090Z,23.59
2022-08-18T12:38:13.251Z,23.38
2022-08-18T12:40:36.840Z,22.82
2022-08-18T12:43:05.771Z,23.00
2022-08-18T12:45:33.900Z,23.00
2022-08-18T12:48:04.403Z,22.00
2022-08-18T12:53:19.281Z,22.22
2022-08-18T12:55:57.965Z,22.29
2022-08-18T12:58:25.172Z,21.91
2022-08-18T13:00:52.391Z,21.27
2022-08-18T13:03:20.195Z,21.16
2022-08-18T13:05:47.758Z,20.91
2022-08-18T13:08:27.540Z,21.45
2022-08-18T13:11:14.469Z,22.07
2022-08-18T13:18:48.671Z,21.95
2022-08-18T13:21:18.463Z,22.69
2022-08-18T13:23:45.569Z,22.71
2022-08-18T13:26:27.543Z,23.27
2022-08-18T13:28:57.869Z,23.53
2022-08-18T13:31:26.891Z,22.88
2022-08-18T13:33:57.140Z,23.50
2022-08-18T13:36:44.230Z,23.41
2022-08-18T13:39:18.741Z,23.58
2022-08-18T13:41:48.960Z,23.58
2022-08-18T13:44:18.828Z,24.31
2022-08-18T13:46:48.216Z,24.06
2022-08-18T13:49:18.455Z,23.29
2022-08-18T13:51:52.616Z,23.36
2022-08-18T13:54:31.270Z,24.22
2022-08-18T13:57:01.867Z,23.93
2022-08-18T13:59:32.865Z,23.79
2022-08-18T14:02:05.798Z,24.84
2022-08-18T14:04:36.361Z,23.99
2022-08-18T14:07:08.927Z,25.07
2022-08-18T14:09:38.029Z,24.99
2022-08-18T14:12:23.748Z,25.82
2022-08-18T14:14:53.250Z,25.87
2022-08-18T14:17:22.273Z,25.96
2022-08-18T14:20:15.323Z,25.63
2022-08-18T14:23:11.842Z,26.04
2022-08-18T14:25:57.657Z,25.99
2022-08-18T14:28:28.561Z,25.40
2022-08-18T14:30:56.797Z,24.45
2022-08-18T14:33:49.720Z,24.05
2022-08-18T14:36:14.340Z,24.23
2022-08-18T14:38:41.549Z,23.82
2022-08-18T14:41:13.207Z,22.88
2022-08-18T14:44:04.036Z,23.33
2022-08-18T14:46:30.591Z,22.33
2022-08-18T14:49:04.066Z,22.95
2022-08-18T14:51:33.618Z,23.32
2022-08-18T14:54:02.001Z,23.43
2022-08-18T14:56:29.468Z,24.88
2022-08-18T14:58:56.927Z,25.80
2022-08-18T15:01:24.524Z,26.90
2022-08-18T15:03:54.390Z,28.22
2022-08-18T15:06:23.138Z,29.03
2022-08-18T15:08:55.603Z,29.73
2022-08-18T15:11:24.715Z,30.56
2022-08-18T15:13:55.072Z,31.31
2022-08-18T15:16:27.005Z,32.00
2022-08-18T15:19:00.382Z,32.44
2022-08-18T15:21:46.879Z,32.33
2022-08-18T15:24:34.242Z,33.11
2022-08-18T15:27:10.454Z,33.87
2022-08-18T15:29:46.452Z,34.02
2022-08-18T15:32:15.277Z,34.68
2022-08-18T15:34:47.221Z,34.90
2022-08-18T15:37:20.260Z,35.18
2022-08-18T15:39:59.925Z,35.56
2022-08-18T15:42:27.460Z,35.49
2022-08-18T15:44:54.700Z,35.33
2022-08-18T15:47:24.960Z,36.40
2022-08-18T15:49:52.666Z,35.87
2022-08-18T15:52:25.995Z,35.01
2022-08-18T15:54:58.413Z,34.99
2022-08-18T15:57:38.577Z,34.94
2022-08-18T16:00:20.035Z,34.89
2022-08-18T16:02:57.225Z,35.66
2022-08-18T16:05:27.353Z,35.95
2022-08-18T16:07:58.636Z,35.62
2022-08-18T16:10:28.032Z,35.46
2022-08-18T16:12:55.091Z,35.17
2022-08-18T16:15:24.749Z,34.56
2022-08-18T16:17:54.867Z,34.14
2022-08-18T16:20:25.459Z,33.84
2022-08-18T16:22:53.305Z,34.72
2022-08-18T16:25:20.822Z,34.29
2022-08-18T16:27:48.523Z,34.02
2022-08-18T16:30:19.237Z,34.38
2022-08-18T16:32:47.548Z,35.09
2022-08-18T16:35:14.930Z,36.23
2022-08-18T16:37:42.098Z,37.33
2022-08-18T16:40:09.509Z,39.85
2022-08-18T16:42:36.714Z,41.96
2022-08-18T16:45:04.953Z,44.41
2022-08-18T16:47:34.733Z,45.91
2022-08-18T16:50:01.847Z,48.42
2022-08-18T16:52:28.893Z,51.84
2022-08-18T16:54:57.299Z,55.96
2022-08-18T16:57:53.729Z,57.67
2022-08-18T17:00:43.413Z,61.63
2022-08-18T17:03:29.895Z,62.38
2022-08-18T17:06:00.786Z,63.86
2022-08-18T17:08:27.906Z,65.60
2022-08-18T17:10:55.198Z,68.38
2022-08-18T17:13:22.541Z,69.15
2022-08-18T17:15:50.493Z,69.64
2022-08-18T17:18:17.912Z,69.97
2022-08-18T17:20:45.072Z,69.82
2022-08-18T17:23:12.366Z,70.30
2022-08-18T17:25:39.948Z,70.11
2022-08-18T17:28:10.062Z,70.13
2022-08-18T17:30:43.281Z,70.15
2022-08-18T17:33:13.479Z,69.57
2022-08-18T17:35:43.332Z,70.19
2022-08-18T17:38:19.411Z,70.29
2022-08-18T17:40:49.709Z,69.26
2022-08-18T17:43:29.836Z,70.73
2022-08-18T17:46:00.089Z,71.18
2022-08-18T17:48:56.653Z,70.05
2022-08-18T17:51:44.344Z,70.53
2022-08-18T17:54:27.557Z,71.52
2022-08-18T17:56:57.894Z,70.47
2022-08-18T17:59:59.212Z,71.33
2022-08-18T18:02:30.608Z,71.95
2022-08-18T18:05:09.702Z,73.86
2022-08-18T18:07:38.334Z,74.67
2022-08-18T18:10:10.068Z,74.85
2022-08-18T18:12:38.983Z,75.35
2022-08-18T18:15:09.922Z,76.05
2022-08-18T18:17:38.979Z,75.04
2022-08-18T18:20:42.119Z,76.09
2022-08-18T18:23:41.143Z,74.85
2022-08-18T18:26:28.773Z,75.49
2022-08-18T18:29:21.263Z,75.91
2022-08-18T18:32:02.450Z,75.60
2022-08-18T18:35:23.782Z,76.02
2022-08-18T18:38:03.322Z,75.60
2022-08-18T18:40:40.655Z,75.38
2022-08-18T18:43:28.942Z,75.88
2022-08-18T18:46:18.819Z,75.68
2022-08-18T18:48:52.449Z,75.84
2022-08-18T18:51:48.884Z,76.35
2022-08-18T18:54:38.412Z,77.08
2022-08-18T18:57:12.798Z,77.40
2022-08-18T18:59:39.861Z,76.30
2022-08-18T19:02:34.931Z,76.45
2022-08-18T19:05:08.314Z,76.20
2022-08-18T19:07:57.155Z,75.78
2022-08-18T19:10:34.955Z,76.22
2022-08-18T19:13:12.528Z,75.95
2022-08-18T19:16:09.548Z,76.25
2022-08-18T19:18:43.202Z,77.26
2022-08-18T19:22:03.621Z,76.98
2022-08-18T19:24:18.085Z,75.54
2022-08-18T19:26:50.549Z,75.48
2022-08-18T19:29:23.578Z,75.18
2022-08-18T19:32:08.544Z,75.30
2022-08-18T19:34:51.151Z,76.02
2022-08-18T19:37:44.759Z,76.49
2022-08-18T19:40:26.489Z,75.72
2022-08-18T19:42:59.469Z,75.33
2022-08-18T19:45:53.776Z,74.79
2022-08-18T19:48:27.855Z,75.10
2022-08-18T19:51:00.621Z,75.37
2022-08-18T19:54:01.302Z,76.35
2022-08-18T19:56:32.672Z,76.58
2022-08-18T19:59:35.267Z,76.75
2022-08-18T20:02:17.367Z,76.37
2022-08-18T20:05:16.842Z,76.29
2022-08-18T20:07:49.896Z,76.15
2022-08-18T20:10:38.599Z,76.90
2022-08-18T20:13:23.567Z,77.89
2022-08-18T20:16:28.560Z,78.41
2022-08-18T20:19:49.886Z,79.24
2022-08-18T20:22:24.485Z,78.94
2022-08-18T20:24:53.001Z,78.04
2022-08-18T20:27:35.012Z,79.62
2022-08-18T20:30:29.566Z,79.63
2022-08-18T20:33:15.041Z,80.02
2022-08-18T20:35:52.502Z,80.39
2022-08-18T20:38:31.785Z,80.51
2022-08-18T20:41:00.374Z,81.56
2022-08-18T20:43:34.792Z,81.39
2022-08-18T20:46:20.555Z,82.02
2022-08-18T20:49:05.850Z,83.60
2022-08-18T20:51:52.297Z,84.61
2022-08-18T20:54:57.131Z,86.55
2022-08-18T20:57:29.001Z,87.47
2022-08-18T21:00:04.067Z,87.69
2022-08-18T21:02:34.652Z,89.34
2022-08-18T21:05:02.053Z,90.58
2022-08-18T21:07:38.079Z,90.57
2022-08-18T21:10:16.517Z,90.74
2022-08-18T21:12:55.027Z,91.83
2022-08-18T21:15:26.290Z,90.17
2022-08-18T21:18:09.324Z,90.38
2022-08-18T21:20:36.574Z,90.61
2022-08-18T21:23:13.228Z,90.19
2022-08-18T21:25:53.370Z,89.49
2022-08-18T21:28:21.669Z,87.74
2022-08-18T21:31:41.523Z,86.72
2022-08-18T21:33:50.068Z,86.18
2022-08-18T21:36:18.520Z,85.74
2022-08-18T21:39:06.015Z,86.46
2022-08-18T21:41:36.141Z,86.18
2022-08-18T21:44:06.475Z,85.89
2022-08-18T21:46:33.607Z,84.96
2022-08-18T21:49:02.491Z,84.74
2022-08-18T21:51:32.592Z,84.15
2022-08-18T21:54:00.391Z,84.18
2022-08-18T21:56:31.565Z,85.13
2022-08-18T21:59:10.339Z,85.87
2022-08-18T22:01:49.003Z,87.19
2022-08-18T22:04:36.832Z,87.72
2022-08-18T22:07:07.391Z,88.31
2022-08-18T22:10:19.039Z,90.38
2022-08-18T22:13:15.664Z,90.36
2022-08-18T22:15:47.791Z,91.95
2022-08-18T22:18:17.775Z,91.19
2022-08-18T22:20:46.385Z,92.29
2022-08-18T22:23:31.861Z,92.16
2022-08-18T22:26:13.842Z,91.51
2022-08-18T22:28:58.452Z,91.30
2022-08-18T22:31:31.000Z,91.95
2022-08-18T22:34:02.044Z,92.50
2022-08-18T22:36:33.416Z,93.47
2022-08-18T22:39:00.783Z,93.50
2022-08-18T22:41:28.348Z,93.41
2022-08-18T22:43:58.156Z,92.52
2022-08-18T22:46:25.310Z,93.22
2022-08-18T22:48:52.933Z,92.78
2022-08-18T22:51:23.007Z,93.12
2022-08-18T22:53:50.635Z,95.72
2022-08-18T22:56:21.866Z,95.63
2022-08-18T22:59:09.670Z,96.60
2022-08-18T23:01:42.479Z,97.00
2022-08-18T23:04:09.610Z,97.75
2022-08-18T23:06:36.724Z,98.68
2022-08-18T23:09:04.834Z,99.39
2022-08-18T23:11:31.974Z,100.00
2022-08-18T23:14:02.400Z,100.00
2022-08-18T23:16:31.374Z,100.00
2022-08-18T23:19:03.409Z,100.00
2022-08-18T23:21:34.578Z,100.00
2022-08-18T23:24:04.831Z,100.00
2022-08-18T23:26:32.013Z,100.00
2022-08-18T23:28:59.157Z,100.00
2022-08-18T23:31:26.304Z,100.00
2022-08-18T23:33:53.600Z,100.00
2022-08-18T23:36:20.695Z,100.00
2022-08-18T23:38:47.802Z,100.00
2022-08-18T23:41:16.199Z,100.00
2022-08-18T23:43:43.296Z,100.00
2022-08-18T23:46:22.030Z,100.00
2022-08-18T23:48:50.945Z,100.00
2022-08-18T23:51:24.059Z,100.00
2022-08-18T23:53:53.707Z,100.00
2022-08-18T23:56:20.792Z,100.00
2022-08-18T23:58:56.321Z,100.00
